createdAt,value
2023-02-24T07:59:38.368Z,79.12
2023-02-24T08:02:08.057Z,79.21
2023-02-24T08:04:39.950Z,78.98
2023-02-24T08:07:14.466Z,78.98
2023-02-24T08:09:45.958Z,78.94
2023-02-24T08:12:18.191Z,79.04
2023-02-24T08:14:51.519Z,79.31
2023-02-24T08:17:22.008Z,79.34
2023-02-24T08:20:12.189Z,79.21
2023-02-24T08:22:44.420Z,79.27
2023-02-24T08:25:18.867Z,79.07
2023-02-24T08:28:07.938Z,78.94
2023-02-24T08:30:46.107Z,78.75
2023-02-24T08:33:21.088Z,78.77
2023-02-24T08:36:01.264Z,78.70
2023-02-24T08:38:42.167Z,78.54
2023-02-24T08:41:21.391Z,78.38
2023-02-24T08:43:50.301Z,78.25
2023-02-24T08:46:26.864Z,78.17
2023-02-24T08:49:00.749Z,78.18
2023-02-24T08:51:43.939Z,78.04
2023-02-24T08:54:15.853Z,77.88
2023-02-24T08:56:50.032Z,77.83
2023-02-24T08:59:37.901Z,77.77
2023-02-24T09:02:18.952Z,77.75
2023-02-24T09:04:52.489Z,77.78
2023-02-24T09:07:27.076Z,77.78
2023-02-24T09:09:56.558Z,77.76
2023-02-24T09:12:29.299Z,77.60
2023-02-24T09:15:07.582Z,77.29
2023-02-24T09:17:45.126Z,77.05
2023-02-24T09:20:33.261Z,76.93
2023-02-24T09:23:03.993Z,76.91
2023-02-24T09:25:49.687Z,76.73
2023-02-24T09:28:20.451Z,76.56
2023-02-24T09:30:58.863Z,76.44
2023-02-24T09:33:39.858Z,76.32
2023-02-24T09:36:13.213Z,76.16
2023-02-24T09:39:03.789Z,75.93
2023-02-24T09:41:57.148Z,75.71
2023-02-24T09:44:34.736Z,75.68
2023-02-24T09:47:54.724Z,75.47
2023-02-24T09:50:59.063Z,75.29
2023-02-24T09:53:18.860Z,75.31
2023-02-24T09:56:04.017Z,75.08
2023-02-24T09:59:10.429Z,75.01
2023-02-24T10:01:46.477Z,74.93
2023-02-24T10:04:36.126Z,74.90
2023-02-24T10:07:12.972Z,74.98
2023-02-24T10:09:47.063Z,75.17
2023-02-24T10:12:24.162Z,75.20
2023-02-24T10:15:18.707Z,75.26
2023-02-24T10:17:56.765Z,75.29
2023-02-24T10:20:39.935Z,75.36
2023-02-24T10:23:36.486Z,75.47
2023-02-24T10:27:00.868Z,75.47
2023-02-24T10:29:35.751Z,75.45
2023-02-24T10:32:24.055Z,75.49
2023-02-24T10:34:53.499Z,75.52
2023-02-24T10:37:29.002Z,75.50
2023-02-24T10:40:09.876Z,75.57
2023-02-24T10:42:48.767Z,75.83
2023-02-24T10:45:24.473Z,76.03
2023-02-24T10:47:57.421Z,76.23
2023-02-24T10:50:34.772Z,76.48
2023-02-24T10:53:34.810Z,76.63
2023-02-24T10:56:27.222Z,76.78
2023-02-24T10:59:25.666Z,77.12
2023-02-24T11:01:59.906Z,77.46
2023-02-24T11:04:44.304Z,77.75
2023-02-24T11:07:24.699Z,77.74
2023-02-24T11:10:13.644Z,77.75
2023-02-24T11:13:10.081Z,78.00
2023-02-24T11:16:04.993Z,78.31
2023-02-24T11:18:33.525Z,78.24
2023-02-24T11:21:07.706Z,78.36
2023-02-24T11:23:47.268Z,78.36
2023-02-24T11:26:26.569Z,78.43
2023-02-24T11:29:13.403Z,78.48
2023-02-24T11:32:09.123Z,78.50
2023-02-24T11:34:49.716Z,78.43
2023-02-24T11:37:40.688Z,78.16
2023-02-24T11:40:29.620Z,77.89
2023-02-24T11:43:19.057Z,77.62
2023-02-24T11:45:54.384Z,77.39
2023-02-24T11:48:32.248Z,77.37
2023-02-24T11:51:03.789Z,77.18
2023-02-24T11:53:44.508Z,77.00
2023-02-24T11:56:20.918Z,76.68
2023-02-24T11:59:06.763Z,76.47
2023-02-24T12:01:57.129Z,76.34
2023-02-24T12:04:34.012Z,76.33
2023-02-24T12:07:21.952Z,76.02
2023-02-24T12:10:14.188Z,75.60
2023-02-24T12:12:51.343Z,75.39
2023-02-24T12:15:41.606Z,75.39
2023-02-24T12:18:25.528Z,75.40
2023-02-24T12:21:08.213Z,75.33
2023-02-24T12:23:43.090Z,75.23
2023-02-24T12:26:32.177Z,75.08
2023-02-24T12:29:42.548Z,74.85
2023-02-24T12:32:30.426Z,74.73
2023-02-24T12:35:22.899Z,74.90
2023-02-24T12:38:03.597Z,75.09
2023-02-24T12:40:47.709Z,75.28
2023-02-24T12:43:35.489Z,75.51
2023-02-24T12:46:05.199Z,75.67
2023-02-24T12:49:05.437Z,75.56
2023-02-24T12:51:51.950Z,75.48
2023-02-24T12:54:28.042Z,75.65
2023-02-24T12:57:20.136Z,75.61
2023-02-24T12:59:49.246Z,75.79
2023-02-24T13:02:31.367Z,75.75
2023-02-24T13:05:13.532Z,75.80
2023-02-24T13:08:05.939Z,75.73
2023-02-24T13:10:50.074Z,75.48
2023-02-24T13:13:33.661Z,75.43
2023-02-24T13:16:01.898Z,75.33
2023-02-24T13:18:35.837Z,75.20
2023-02-24T13:21:09.333Z,75.11
2023-02-24T13:23:42.108Z,75.13
2023-02-24T13:26:10.598Z,75.07
2023-02-24T13:28:38.708Z,75.05
2023-02-24T13:31:11.049Z,75.12
2023-02-24T13:33:44.100Z,75.10
2023-02-24T13:36:17.257Z,75.19
2023-02-24T13:38:47.776Z,75.29
2023-02-24T13:41:27.511Z,75.28
2023-02-24T13:44:01.759Z,75.28
2023-02-24T13:47:20.616Z,75.28
2023-02-24T13:50:00.405Z,75.32
2023-02-24T13:52:37.616Z,75.37
2023-02-24T13:55:39.811Z,75.23
2023-02-24T13:58:37.193Z,75.00
2023-02-24T14:01:14.215Z,74.83
2023-02-24T14:03:46.872Z,74.83
2023-02-24T14:06:26.478Z,74.85
2023-02-24T14:09:01.709Z,74.79
2023-02-24T14:11:35.008Z,74.78
2023-02-24T14:14:03.913Z,74.71
2023-02-24T14:16:41.525Z,74.59
2023-02-24T14:19:16.303Z,74.55
2023-02-24T14:22:02.421Z,74.62
2023-02-24T14:24:30.285Z,74.74
2023-02-24T14:26:59.714Z,74.87
2023-02-24T14:29:32.194Z,74.80
2023-02-24T14:32:01.318Z,74.52
2023-02-24T14:34:31.592Z,74.32
2023-02-24T14:37:03.769Z,74.23
2023-02-24T14:39:34.418Z,74.28
2023-02-24T14:42:13.061Z,74.37
2023-02-24T14:44:50.016Z,74.67
2023-02-24T14:47:20.769Z,74.91
2023-02-24T14:50:02.049Z,74.97
2023-02-24T14:52:39.687Z,75.08
2023-02-24T14:55:18.589Z,75.25
2023-02-24T14:57:58.207Z,75.35
2023-02-24T15:00:35.563Z,75.54
2023-02-24T15:03:16.945Z,75.69
2023-02-24T15:05:49.207Z,75.74
2023-02-24T15:08:41.312Z,75.87
2023-02-24T15:11:18.303Z,76.03
2023-02-24T15:13:52.973Z,76.09
2023-02-24T15:16:29.768Z,76.05
2023-02-24T15:19:01.536Z,76.25
2023-02-24T15:21:39.040Z,76.19
2023-02-24T15:24:27.818Z,76.27
2023-02-24T15:27:17.709Z,76.43
2023-02-24T15:29:58.279Z,76.51
2023-02-24T15:32:28.726Z,76.72
2023-02-24T15:34:57.301Z,76.83
2023-02-24T15:37:45.173Z,77.00
2023-02-24T15:40:20.746Z,77.12
2023-02-24T15:42:55.465Z,77.24
2023-02-24T15:45:33.630Z,77.12
2023-02-24T15:48:04.532Z,77.26
2023-02-24T15:50:32.462Z,77.26
2023-02-24T15:53:04.400Z,77.31
2023-02-24T15:55:33.076Z,77.31
2023-02-24T15:58:04.065Z,77.55
2023-02-24T16:00:32.437Z,77.66
2023-02-24T16:03:00.263Z,77.90
2023-02-24T16:05:28.057Z,78.06
2023-02-24T16:07:55.832Z,78.41
2023-02-24T16:10:27.119Z,78.55
2023-02-24T16:13:00.528Z,78.74
2023-02-24T16:15:30.956Z,79.01
2023-02-24T16:18:02.290Z,79.18
2023-02-24T16:20:31.825Z,79.33
2023-02-24T16:23:02.528Z,79.58
2023-02-24T16:25:36.322Z,79.72
2023-02-24T16:28:03.976Z,79.72
2023-02-24T16:30:31.829Z,79.90
2023-02-24T16:33:01.633Z,80.27
2023-02-24T16:35:29.725Z,80.52
2023-02-24T16:37:57.474Z,80.44
2023-02-24T16:40:30.935Z,80.45
2023-02-24T16:42:58.750Z,80.56
2023-02-24T16:45:29.630Z,80.69
2023-02-24T16:48:02.490Z,80.84
2023-02-24T16:50:40.582Z,80.95
2023-02-24T16:53:16.212Z,81.07
2023-02-24T16:55:44.002Z,81.05
2023-02-24T16:58:12.548Z,81.27
2023-02-24T17:00:41.883Z,81.42
2023-02-24T17:03:33.923Z,81.47
2023-02-24T17:06:01.866Z,81.51
2023-02-24T17:08:29.728Z,81.53
2023-02-24T17:10:57.574Z,81.77
2023-02-24T17:13:25.341Z,81.90
2023-02-24T17:15:57.361Z,81.89
2023-02-24T17:18:25.736Z,81.92
2023-02-24T17:20:53.746Z,81.96
2023-02-24T17:23:22.147Z,81.92
2023-02-24T17:25:53.889Z,81.99
2023-02-24T17:28:21.884Z,81.94
2023-02-24T17:30:49.884Z,81.92
2023-02-24T17:33:17.799Z,82.00
2023-02-24T17:35:49.383Z,82.05
2023-02-24T17:38:20.168Z,82.06
2023-02-24T17:40:48.208Z,82.02
2023-02-24T17:43:16.165Z,81.99
2023-02-24T17:45:46.356Z,81.99
2023-02-24T17:48:15.530Z,81.97
2023-02-24T17:50:45.297Z,81.99
2023-02-24T17:53:13.322Z,81.99
2023-02-24T17:55:55.888Z,82.01
2023-02-24T17:58:29.353Z,81.99
2023-02-24T18:00:57.296Z,81.96
2023-02-24T18:03:25.211Z,81.94
2023-02-24T18:06:13.092Z,82.02
2023-02-24T18:08:41.284Z,82.15
2023-02-24T18:11:13.931Z,82.21
2023-02-24T18:13:41.701Z,82.21
2023-02-24T18:16:11.100Z,82.31
2023-02-24T18:18:39.794Z,82.35
2023-02-24T18:21:08.748Z,82.53
2023-02-24T18:23:40.177Z,82.48
2023-02-24T18:26:10.081Z,82.47
2023-02-24T18:28:38.593Z,82.47
2023-02-24T18:31:18.640Z,82.53
2023-02-24T18:33:46.895Z,82.48
2023-02-24T18:36:15.483Z,82.43
2023-02-24T18:38:43.508Z,82.47
2023-02-24T18:41:19.399Z,82.49
2023-02-24T18:43:49.556Z,82.41
2023-02-24T18:46:18.706Z,82.45
2023-02-24T18:48:47.493Z,82.56
2023-02-24T18:51:18.789Z,82.64
2023-02-24T18:53:47.093Z,82.86
2023-02-24T18:56:17.007Z,82.94
2023-02-24T18:58:46.057Z,83.00
2023-02-24T19:01:20.564Z,82.95
2023-02-24T19:03:51.132Z,82.99
2023-02-24T19:06:20.802Z,82.94
2023-02-24T19:08:54.854Z,82.85
2023-02-24T19:11:22.647Z,82.77
2023-02-24T19:13:50.455Z,82.75
2023-02-24T19:16:18.843Z,82.73
2023-02-24T19:18:51.373Z,82.70
2023-02-24T19:21:19.496Z,82.69
2023-02-24T19:23:47.323Z,82.69
2023-02-24T19:26:22.145Z,82.66
2023-02-24T19:28:50.620Z,82.65
2023-02-24T19:31:23.213Z,82.70
2023-02-24T19:33:56.027Z,82.79
2023-02-24T19:36:24.748Z,82.85
2023-02-24T19:38:53.983Z,83.06
2023-02-24T19:41:21.894Z,83.23
2023-02-24T19:43:50.023Z,83.20
2023-02-24T19:46:19.098Z,83.33
2023-02-24T19:48:47.277Z,83.39
2023-02-24T19:51:22.639Z,83.45
2023-02-24T19:53:55.987Z,83.39
2023-02-24T19:56:26.127Z,83.34
2023-02-24T19:58:59.047Z,83.33
2023-02-24T20:01:28.690Z,83.43
2023-02-24T20:04:01.812Z,83.57
2023-02-24T20:06:33.075Z,83.71
2023-02-24T20:09:02.972Z,83.81
2023-02-24T20:11:34.702Z,83.84
2023-02-24T20:14:02.972Z,83.86
2023-02-24T20:16:34.626Z,83.81
2023-02-24T20:19:03.586Z,83.81
2023-02-24T20:21:32.203Z,83.77
2023-02-24T20:24:01.497Z,83.72
2023-02-24T20:26:30.979Z,83.74
2023-02-24T20:29:00.587Z,83.76
2023-02-24T20:31:29.081Z,83.73
2023-02-24T20:33:57.778Z,83.72
2023-02-24T20:36:28.220Z,83.74
2023-02-24T20:38:58.582Z,83.72
2023-02-24T20:41:27.449Z,83.68
2023-02-24T20:43:55.888Z,83.71
2023-02-24T20:46:29.953Z,83.77
2023-02-24T20:49:04.085Z,83.76
2023-02-24T20:51:34.782Z,83.90
2023-02-24T20:54:03.768Z,83.98
2023-02-24T20:56:36.508Z,84.00
2023-02-24T20:59:12.581Z,83.96
2023-02-24T21:01:41.193Z,84.02
2023-02-24T21:04:09.051Z,84.08
2023-02-24T21:06:37.484Z,84.09
2023-02-24T21:09:05.713Z,84.23
2023-02-24T21:11:34.423Z,84.30
2023-02-24T21:14:02.884Z,84.27
2023-02-24T21:16:30.605Z,84.28
2023-02-24T21:18:58.873Z,84.25
2023-02-24T21:21:26.751Z,84.23
2023-02-24T21:23:55.312Z,84.18
2023-02-24T21:26:26.860Z,84.22
2023-02-24T21:28:59.538Z,84.28
2023-02-24T21:31:28.072Z,84.26
2023-02-24T21:33:56.440Z,84.19
2023-02-24T21:36:26.188Z,84.15
2023-02-24T21:38:54.946Z,84.20
2023-02-24T21:41:23.802Z,84.17
2023-02-24T21:43:56.935Z,84.16
2023-02-24T21:46:28.263Z,84.25
2023-02-24T21:49:00.389Z,84.12
2023-02-24T21:51:29.395Z,84.20
2023-02-24T21:53:58.088Z,84.28
2023-02-24T21:56:29.099Z,84.28
2023-02-24T21:59:00.983Z,84.36
2023-02-24T22:01:38.160Z,84.35
2023-02-24T22:04:10.095Z,84.31
2023-02-24T22:06:39.190Z,84.31
2023-02-24T22:09:09.383Z,84.32
2023-02-24T22:11:41.398Z,84.34
2023-02-24T22:14:11.908Z,84.40
2023-02-24T22:16:40.353Z,84.38
2023-02-24T22:19:08.469Z,84.39
2023-02-24T22:21:36.588Z,84.38
2023-02-24T22:24:04.676Z,84.38
2023-02-24T22:26:33.562Z,84.39
2023-02-24T22:29:02.473Z,84.44
2023-02-24T22:31:32.490Z,84.43
2023-02-24T22:34:01.250Z,84.44
2023-02-24T22:36:33.611Z,84.53
2023-02-24T22:39:02.520Z,84.51
2023-02-24T22:41:33.115Z,84.53
2023-02-24T22:44:02.768Z,84.53
2023-02-24T22:46:33.361Z,84.49
2023-02-24T22:49:01.295Z,84.41
2023-02-24T22:51:29.714Z,84.43
2023-02-24T22:53:57.489Z,84.49
2023-02-24T22:56:29.055Z,84.53
2023-02-24T22:58:58.090Z,84.59
2023-02-24T23:01:28.981Z,84.61
2023-02-24T23:04:00.047Z,84.71
2023-02-24T23:06:29.433Z,84.76
2023-02-24T23:08:59.787Z,84.73
2023-02-24T23:11:33.200Z,84.81
2023-02-24T23:14:04.178Z,84.93
2023-02-24T23:16:34.111Z,84.96
2023-02-24T23:19:06.363Z,84.89
2023-02-24T23:21:41.007Z,84.87
2023-02-24T23:24:11.061Z,84.93
2023-02-24T23:26:45.275Z,85.02
2023-02-24T23:29:17.296Z,85.09
2023-02-24T23:31:45.824Z,85.19
2023-02-24T23:34:14.905Z,85.14
2023-02-24T23:36:44.780Z,85.13
2023-02-24T23:39:15.781Z,85.29
2023-02-24T23:41:44.286Z,85.29
2023-02-24T23:44:12.648Z,85.38
2023-02-24T23:46:41.801Z,85.43
2023-02-24T23:49:09.771Z,85.49
2023-02-24T23:51:48.162Z,85.50
2023-02-24T23:54:18.253Z,85.55
2023-02-24T23:56:46.987Z,85.60
2023-02-24T23:59:15.361Z,85.61
